| time (UTC) | temp C | wind direction | speed KPH | gust KPH | rain 1hr cm | rain 24hr cm | rain mn cm | humidity % | barometer mb |
| 20260507033537 | 16 | 225 | 1.6 | 11.3 | 0.00 | 0.00 | 0.00 | 76 | 1017.2 |
| 20260507032537 | 16 | 203 | 1.6 | 8.0 | 0.00 | 0.00 | 0.00 | 76 | 1017.1 |
| 20260507031517 | 16 | 225 | 1.6 | 12.9 | 0.00 | 0.00 | 0.00 | 75 | 1016.9 |
| 20260507030517 | 17 | 135 | 3.2 | 14.5 | 0.00 | 0.00 | 0.00 | 73 | 1016.7 |
| 20260507025517 | 17 | 158 | 3.2 | 11.3 | 0.00 | 0.00 | 0.00 | 72 | 1016.6 |
| 20260507024517 | 17 | 135 | 1.6 | 6.4 | 0.00 | 0.00 | 0.00 | 70 | 1016.4 |
| 20260507023517 | 18 | 203 | 3.2 | 11.3 | 0.00 | 0.00 | 0.00 | 69 | 1016.3 |
| 20260507022517 | 18 | 203 | 3.2 | 14.5 | 0.00 | 0.00 | 0.00 | 68 | 1016.3 |
| 20260507021517 | 19 | 180 | 3.2 | 12.9 | 0.00 | 0.00 | 0.00 | 67 | 1016.2 |
| 20260507020517 | 20 | 203 | 1.6 | 8.0 | 0.00 | 0.00 | 0.00 | 65 | 1016.2 |
| 20260507015517 | 20 | 158 | 3.2 | 12.9 | 0.00 | 0.00 | 0.00 | 64 | 1016.2 |
| 20260507014537 | 21 | 113 | 1.6 | 6.4 | 0.00 | 0.00 | 0.00 | 62 | 1016.2 |
| 20260507013517 | 21 | 158 | 4.8 | 14.5 | 0.00 | 0.00 | 0.00 | 61 | 1016.2 |
| 20260507012517 | 21 | 203 | 1.6 | 9.7 | 0.00 | 0.00 | 0.00 | 60 | 1016.2 |
| 20260507011517 | 22 | 203 | 3.2 | 11.3 | 0.00 | 0.00 | 0.00 | 58 | 1016.1 |
| 20260507010537 | 22 | 158 | 3.2 | 14.5 | 0.00 | 0.00 | 0.00 | 58 | 1016.0 |
| 20260507005517 | 22 | 225 | 1.6 | 9.7 | 0.00 | 0.00 | 0.00 | 57 | 1016.0 |
| 20260507004517 | 23 | 158 | 3.2 | 11.3 | 0.00 | 0.00 | 0.00 | 56 | 1015.9 |
| 20260507003517 | 23 | 180 | 4.8 | 17.7 | 0.00 | 0.00 | 0.00 | 54 | 1015.9 |
| 20260507002537 | 23 | 135 | 6.4 | 17.7 | 0.00 | 0.00 | 0.00 | 53 | 1015.9 |
| 20260507001557 | 23 | 158 | 4.8 | 16.1 | 0.00 | 0.00 | 0.00 | 53 | 1015.9 |
| 20260507000518 | 23 | 203 | 3.2 | 14.5 | 0.00 | 0.00 | 0.00 | 53 | 1015.9 |
| 20260506235537 | 23 | 158 | 4.8 | 17.7 | 0.00 | 0.00 | 0.00 | 51 | 1015.8 |
| 20260506234516 | 23 | 158 | 4.8 | 16.1 | 0.00 | 0.00 | 0.00 | 51 | 1015.9 |
| 20260506233517 | 23 | 68 | 3.2 | 12.9 | 0.00 | 0.00 | 0.00 | 52 | 1016.1 |
| 20260506232516 | 23 | 113 | 3.2 | 14.5 | 0.00 | 0.00 | 0.00 | 52 | 1016.0 |
| 20260506231516 | 24 | 135 | 4.8 | 14.5 | 0.00 | 0.00 | 0.00 | 50 | 1016.1 |
| 20260506230536 | 24 | 135 | 3.2 | 12.9 | 0.00 | 0.00 | 0.00 | 51 | 1016.2 |
| 20260506225557 | 25 | 68 | 3.2 | 14.5 | 0.00 | 0.00 | 0.00 | 51 | 1016.3 |
| 20260506224516 | 25 | 90 | 3.2 | 19.3 | 0.00 | 0.00 | 0.00 | 50 | 1016.4 |
| 20260506223517 | 25 | 90 | 1.6 | 11.3 | 0.00 | 0.00 | 0.00 | 50 | 1016.4 |
| 20260506222517 | 25 | 135 | 1.6 | 8.0 | 0.00 | 0.00 | 0.00 | 49 | 1016.5 |
| 20260506221516 | 25 | 203 | 3.2 | 14.5 | 0.00 | 0.00 | 0.00 | 49 | 1016.6 |
| 20260506220517 | 25 | 180 | 1.6 | 8.0 | 0.00 | 0.00 | 0.00 | 49 | 1016.7 |
| 20260506215536 | 25 | 135 | 1.6 | 11.3 | 0.00 | 0.00 | 0.00 | 50 | 1016.9 |
| 20260506214516 | 24 | 135 | 1.6 | 9.7 | 0.00 | 0.00 | 0.00 | 51 | 1017.0 |
| 20260506213516 | 24 | 135 | 1.6 | 11.3 | 0.00 | 0.00 | 0.00 | 51 | 1017.1 |
| 20260506212517 | 24 | 135 | 1.6 | 12.9 | 0.00 | 0.00 | 0.00 | 51 | 1017.2 |
| 20260506211517 | 23 | 225 | 1.6 | 11.3 | 0.00 | 0.00 | 0.00 | 54 | 1017.3 |
| 20260506210517 | 23 | 135 | 3.2 | 16.1 | 0.00 | 0.00 | 0.00 | 53 | 1017.4 |
| 20260506205516 | 23 | 135 | 1.6 | 9.7 | 0.00 | 0.00 | 0.00 | 53 | 1017.6 |
| 20260506204516 | 23 | 225 | 1.6 | 9.7 | 0.00 | 0.00 | 0.00 | 53 | 1017.6 |
| 20260506203516 | 22 | 135 | 1.6 | 8.0 | 0.00 | 0.00 | 0.00 | 55 | 1017.7 |
| 20260506202516 | 22 | 135 | 3.2 | 12.9 | 0.00 | 0.00 | 0.00 | 55 | 1017.9 |
| 20260506201516 | 22 | 225 | 1.6 | 11.3 | 0.00 | 0.00 | 0.00 | 55 | 1018.0 |
| 20260506200516 | 22 | 0.0 | 9.7 | 0.00 | 0.00 | 0.00 | 56 | 1018.0 | |
| 20260506195516 | 21 | 0.0 | 4.8 | 0.00 | 0.00 | 0.00 | 57 | 1018.1 | |
| 20260506194516 | 21 | 225 | 1.6 | 8.0 | 0.00 | 0.00 | 0.00 | 59 | 1018.2 |
| 20260506193516 | 20 | 45 | 1.6 | 9.7 | 0.00 | 0.00 | 0.00 | 59 | 1018.2 |
| 20260506192516 | 20 | 0.0 | 3.2 | 0.00 | 0.00 | 0.00 | 61 | 1018.4 | |
| 20260506191516 | 20 | 0.0 | 3.2 | 0.00 | 0.00 | 0.00 | 62 | 1018.5 | |
| 20260506190516 | 19 | 0.0 | 1.6 | 0.00 | 0.00 | 0.00 | 63 | 1018.6 | |
| 20260506185516 | 19 | 270 | 1.6 | 4.8 | 0.00 | 0.00 | 0.00 | 62 | 1018.7 |
| 20260506184516 | 18 | 0.0 | 6.4 | 0.00 | 0.00 | 0.00 | 64 | 1018.8 | |
| 20260506183516 | 18 | 180 | 1.6 | 8.0 | 0.00 | 0.00 | 0.00 | 65 | 1018.9 |
| 20260506182537 | 18 | 0.0 | 3.2 | 0.00 | 0.00 | 0.00 | 65 | 1018.9 | |
| 20260506181516 | 18 | 0.0 | 9.7 | 0.00 | 0.00 | 0.00 | 66 | 1018.9 | |
| 20260506180516 | 17 | 225 | 1.6 | 4.8 | 0.00 | 0.00 | 0.00 | 66 | 1018.9 |
| 20260506175516 | 17 | 0.0 | 4.8 | 0.00 | 0.00 | 0.00 | 66 | 1018.9 | |
| 20260506174516 | 17 | 225 | 1.6 | 6.4 | 0.00 | 0.00 | 0.00 | 67 | 1019.0 |
| 20260506173516 | 17 | 158 | 1.6 | 8.0 | 0.00 | 0.00 | 0.00 | 68 | 1019.0 |
| 20260506172516 | 17 | 0.0 | 3.2 | 0.00 | 0.00 | 0.00 | 68 | 1019.1 | |
| 20260506171516 | 17 | 0.0 | 4.8 | 0.00 | 0.00 | 0.00 | 70 | 1019.1 | |
| 20260506170536 | 16 | 0.0 | 1.6 | 0.00 | 0.00 | 0.00 | 70 | 1019.1 | |
| 20260506165536 | 16 | 0.0 | 6.4 | 0.00 | 0.00 | 0.00 | 72 | 1019.1 | |
| 20260506164516 | 16 | 0.0 | 1.6 | 0.00 | 0.00 | 0.00 | 72 | 1019.1 | |
| 20260506163516 | 16 | 0.0 | 1.6 | 0.00 | 0.00 | 0.00 | 73 | 1019.1 | |
| 20260506162516 | 16 | 0.0 | 4.8 | 0.00 | 0.00 | 0.00 | 74 | 1019.1 | |
| 20260506161516 | 15 | 0.0 | 4.8 | 0.00 | 0.00 | 0.00 | 75 | 1019.2 | |
| 20260506160516 | 15 | 0.0 | 1.6 | 0.00 | 0.00 | 0.00 | 76 | 1019.2 | |
| 20260506155516 | 15 | 0.0 | 0.0 | 0.00 | 0.00 | 0.00 | 76 | 1019.1 | |
| 20260506154516 | 15 | 0.0 | 0.0 | 0.00 | 0.00 | 0.00 | 77 | 1019.1 | |
| 20260506153516 | 15 | 0.0 | 0.0 | 0.00 | 0.00 | 0.00 | 78 | 1019.1 | |
| 20260506152516 | 14 | 0.0 | 3.2 | 0.00 | 0.00 | 0.00 | 80 | 1019.2 | |
| 20260506151516 | 14 | 0.0 | 0.0 | 0.00 | 0.00 | 0.00 | 81 | 1019.2 | |
| 20260506150516 | 14 | 0.0 | 0.0 | 0.00 | 0.00 | 0.00 | 83 | 1019.2 | |
| 20260506145516 | 13 | 0.0 | 0.0 | 0.00 | 0.00 | 0.00 | 84 | 1019.2 | |
| 20260506144516 | 13 | 0.0 | 0.0 | 0.00 | 0.00 | 0.00 | 85 | 1019.2 | |
| 20260506143516 | 13 | 0.0 | 0.0 | 0.00 | 0.00 | 0.00 | 86 | 1019.1 | |
| 20260506142516 | 12 | 0.0 | 0.0 | 0.00 | 0.00 | 0.00 | 86 | 1019.2 | |
| 20260506141516 | 12 | 0.0 | 0.0 | 0.00 | 0.00 | 0.00 | 86 | 1019.1 | |
| 20260506140536 | 11 | 0.0 | 0.0 | 0.00 | 0.00 | 0.00 | 85 | 1018.9 | |
| 20260506135516 | 11 | 0.0 | 0.0 | 0.00 | 0.00 | 0.00 | 85 | 1018.8 | |
| 20260506134536 | 11 | 0.0 | 0.0 | 0.00 | 0.00 | 0.00 | 84 | 1018.6 | |
| 20260506133515 | 11 | 0.0 | 0.0 | 0.00 | 0.00 | 0.00 | 84 | 1018.5 | |
| 20260506132516 | 11 | 0.0 | 0.0 | 0.00 | 0.00 | 0.00 | 84 | 1018.4 | |
| 20260506131535 | 11 | 0.0 | 0.0 | 0.00 | 0.00 | 0.00 | 85 | 1018.3 | |
| 20260506130518 | 12 | 0.0 | 0.0 | 0.00 | 0.00 | 0.00 | 85 | 1018.2 | |
| 20260506125517 | 12 | 0.0 | 0.0 | 0.00 | 0.00 | 0.00 | 85 | 1018.1 | |
| 20260506124517 | 12 | 0.0 | 0.0 | 0.00 | 0.00 | 0.00 | 85 | 1018.1 | |
| 20260506123517 | 12 | 0.0 | 0.0 | 0.00 | 0.00 | 0.00 | 85 | 1018.1 | |
| 20260506122538 | 12 | 0.0 | 0.0 | 0.00 | 0.00 | 0.00 | 85 | 1018.1 | |
| 20260506121538 | 11 | 0.0 | 0.0 | 0.00 | 0.00 | 0.00 | 85 | 1018.0 | |
| 20260506120518 | 11 | 0.0 | 0.0 | 0.00 | 0.00 | 0.00 | 85 | 1018.0 | |
| 20260506115517 | 12 | 0.0 | 0.0 | 0.00 | 0.00 | 0.00 | 85 | 1018.0 | |
| 20260506114517 | 12 | 0.0 | 0.0 | 0.00 | 0.00 | 0.00 | 85 | 1017.8 | |
| 20260506113517 | 11 | 0.0 | 0.0 | 0.00 | 0.00 | 0.00 | 85 | 1017.8 | |
| 20260506112517 | 11 | 0.0 | 0.0 | 0.00 | 0.00 | 0.00 | 85 | 1017.7 | |
| 20260506111517 | 11 | 0.0 | 0.0 | 0.00 | 0.00 | 0.00 | 85 | 1017.7 | |
| 20260506110517 | 11 | 0.0 | 0.0 | 0.00 | 0.00 | 0.00 | 85 | 1017.7 | |
| 20260506105518 | 11 | 0.0 | 0.0 | 0.00 | 0.00 | 0.00 | 85 | 1017.7 | |
| 20260506104517 | 11 | 0.0 | 0.0 | 0.00 | 0.00 | 0.00 | 84 | 1017.6 | |
| 20260506103518 | 11 | 0.0 | 0.0 | 0.00 | 0.00 | 0.00 | 83 | 1017.6 | |
| 20260506102517 | 12 | 0.0 | 0.0 | 0.00 | 0.00 | 0.00 | 83 | 1017.5 | |
| 20260506101518 | 12 | 0.0 | 0.0 | 0.00 | 0.00 | 0.00 | 82 | 1017.5 | |
| 20260506100518 | 12 | 0.0 | 0.0 | 0.00 | 0.00 | 0.00 | 81 | 1017.6 | |
| 20260506095517 | 12 | 0.0 | 0.0 | 0.00 | 0.00 | 0.00 | 81 | 1017.5 | |
| 20260506094537 | 12 | 0.0 | 0.0 | 0.00 | 0.00 | 0.00 | 81 | 1017.4 | |
| 20260506093537 | 12 | 0.0 | 0.0 | 0.00 | 0.00 | 0.00 | 80 | 1017.4 | |
| 20260506092517 | 13 | 0.0 | 0.0 | 0.00 | 0.00 | 0.00 | 80 | 1017.5 | |
| 20260506091517 | 13 | 0.0 | 0.0 | 0.00 | 0.00 | 0.00 | 80 | 1017.5 | |
| 20260506090517 | 13 | 0.0 | 0.0 | 0.00 | 0.00 | 0.00 | 79 | 1017.6 | |
| 20260506085517 | 13 | 0.0 | 0.0 | 0.00 | 0.00 | 0.00 | 79 | 1017.4 | |
| 20260506084538 | 13 | 0.0 | 0.0 | 0.00 | 0.00 | 0.00 | 79 | 1017.4 | |
| 20260506083517 | 13 | 0.0 | 0.0 | 0.00 | 0.00 | 0.00 | 79 | 1017.5 | |
| 20260506082517 | 13 | 0.0 | 0.0 | 0.00 | 0.00 | 0.00 | 79 | 1017.6 | |
| 20260506081517 | 13 | 0.0 | 0.0 | 0.00 | 0.00 | 0.00 | 79 | 1017.5 | |
| 20260506080517 | 13 | 0.0 | 3.2 | 0.00 | 0.00 | 0.00 | 79 | 1017.4 | |
| 20260506073517 | 14 | 135 | 1.6 | 3.2 | 0.00 | 0.00 | 0.00 | 78 | 1017.3 |
| 20260506072517 | 14 | 0.0 | 3.2 | 0.00 | 0.00 | 0.00 | 78 | 1017.3 | |
| 20260506071517 | 14 | 0.0 | 6.4 | 0.00 | 0.00 | 0.00 | 78 | 1017.2 | |
| 20260506070537 | 14 | 0.0 | 3.2 | 0.00 | 0.00 | 0.00 | 78 | 1017.0 | |
| 20260506061517 | 14 | 0.0 | 3.2 | 0.00 | 0.00 | 0.00 | 77 | 1016.8 | |
| 20260506060517 | 14 | 0 | 1.6 | 9.7 | 0.00 | 0.00 | 0.00 | 77 | 1016.6 |
| 20260506050517 | 15 | 225 | 3.2 | 9.7 | 0.00 | 0.00 | 0.00 | 76 | 1016.3 |
| 20260506044517 | 15 | 248 | 3.2 | 9.7 | 0.00 | 0.00 | 0.00 | 75 | 1016.0 |
| 20260506043517 | 15 | 338 | 1.6 | 4.8 | 0.00 | 0.00 | 0.00 | 75 | 1016.0 |
| 20260506042537 | 15 | 203 | 3.2 | 12.9 | 0.00 | 0.00 | 0.00 | 74 | 1015.9 |
| 20260506041517 | 15 | 225 | 1.6 | 4.8 | 0.00 | 0.00 | 0.00 | 73 | 1015.8 |
| 20260506040517 | 15 | 180 | 1.6 | 9.7 | 0.00 | 0.00 | 0.00 | 73 | 1015.6 |
| 20260506035517 | 15 | 0.0 | 3.2 | 0.00 | 0.00 | 0.00 | 72 | 1015.4 | |
| 20260506034517 | 15 | 0.0 | 1.6 | 0.00 | 0.00 | 0.00 | 72 | 1015.3 |